Time;durP1;ratioP1;P1;durP2;ratioP2;P2;SDS_P1;SDS_P2;PMS_P1;PMS_P2;Temp;Humidity;BMP_temperature;BMP_pressure;BME280_temperature;BME280_humidity;BME280_pressure;Samples;Min_cycle;Max_cycle;Signal;HPM_P1;HPM_P2
2023/09/08 00:00:40;;;;;;;8.25;4.88;;;;;;;18.36;95.26;101612.19;1028797;28;20190;-54
2023/09/08 00:01:27;;;;;;;5.40;4.60;;;;;;;18.35;95.87;101616.75;1025185;28;20051;-55
2023/09/08 00:02:22;;;;;;;6.00;4.90;;;;;;;18.30;95.45;101613.97;1028782;28;20051;-55
2023/09/08 00:03:17;;;;;;;4.85;4.38;;;;;;;18.03;96.12;101616.53;1030991;28;20073;-55
2023/09/08 00:04:21;;;;;;;6.40;5.35;;;;;;;17.69;100.00;101614.94;1023137;28;20050;-55
2023/09/08 00:05:07;;;;;;;5.72;4.85;;;;;;;17.74;100.00;101626.59;1008422;29;20375;-54
2023/09/08 00:05:49;;;;;;;6.07;5.15;;;;;;;17.60;100.00;101620.69;1016209;29;20438;-54
2023/09/08 00:06:38;;;;;;;4.60;4.20;;;;;;;17.66;100.00;101618.09;1010505;29;20041;-55
2023/09/08 00:07:25;;;;;;;4.88;4.47;;;;;;;17.69;100.00;101620.31;1015625;29;20547;-54
2023/09/08 00:08:28;;;;;;;;;;;;;;;;;;;;;
2023/09/08 00:09:18;;;;;;;8.05;4.75;;;;;;;17.72;100.00;101620.63;1027781;28;20130;-56
2023/09/08 00:10:20;;;;;;;7.50;6.00;;;;;;;17.47;100.00;101615.59;1033663;28;20041;-56
2023/09/08 00:11:18;;;;;;;8.13;5.43;;;;;;;17.66;100.00;101615.38;1020395;29;21156;-56
2023/09/08 00:12:07;;;;;;;6.53;5.68;;;;;;;17.33;100.00;101625.06;1021599;29;20055;-54
2023/09/08 00:13:05;;;;;;;5.78;5.10;;;;;;;17.54;100.00;101621.69;1025789;28;20569;-55
2023/09/08 00:14:23;;;;;;;7.43;4.93;;;;;;;17.72;100.00;101609.03;1028209;28;20050;-54
2023/09/08 00:15:06;;;;;;;9.13;5.20;;;;;;;17.64;100.00;101614.81;1028050;28;20051;-55
2023/09/08 00:15:44;;;;;;;7.13;4.95;;;;;;;17.53;100.00;101614.66;1032597;28;20489;-56
2023/09/08 00:16:19;;;;;;;6.65;5.32;;;;;;;17.65;100.00;101611.06;1029188;28;20035;-55
2023/09/08 00:17:31;;;;;;;7.78;5.63;;;;;;;17.77;100.00;101614.50;1024788;28;20035;-54
2023/09/08 00:19:03;;;;;;;5.55;4.93;;;;;;;17.33;100.00;101614.28;1018959;29;20067;-53
2023/09/08 00:20:11;;;;;;;5.78;4.70;;;;;;;17.15;100.00;101617.19;1026540;28;20134;-54
2023/09/08 00:20:51;;;;;;;4.70;4.30;;;;;;;17.39;100.00;101618.69;1024986;28;20051;-53
2023/09/08 00:21:45;;;;;;;5.30;4.80;;;;;;;17.31;100.00;101613.72;1025177;28;20418;-54
2023/09/08 00:22:44;;;;;;;4.93;4.53;;;;;;;17.11;100.00;101619.53;1022936;28;20047;-54
2023/09/08 00:23:40;;;;;;;12.93;5.55;;;;;;;17.22;100.00;101617.84;1029406;28;20039;-53
2023/09/08 00:24:22;;;;;;;7.30;5.72;;;;;;;17.49;100.00;101618.88;1023093;28;20067;-54
2023/09/08 00:25:08;;;;;;;6.45;5.70;;;;;;;17.08;100.00;101616.50;1028466;28;20146;-55
2023/09/08 00:26:00;;;;;;;7.15;5.57;;;;;;;17.07;100.00;101615.69;1024960;28;20485;-55
2023/09/08 00:26:53;;;;;;;7.63;5.88;;;;;;;16.94;100.00;101615.97;1026282;28;20039;-53
2023/09/08 00:27:40;;;;;;;5.78;5.18;;;;;;;16.92;100.00;101613.50;1021716;29;20130;-53
2023/09/08 00:28:26;;;;;;;6.03;4.97;;;;;;;16.79;100.00;101619.19;1015114;29;20535;-55
2023/09/08 00:29:10;;;;;;;5.00;4.50;;;;;;;16.84;100.00;101619.28;1018890;29;20092;-55
2023/09/08 00:30:12;;;;;;;5.25;4.75;;;;;;;17.08;100.00;101616.50;1018123;29;20047;-54
2023/09/08 00:31:01;;;;;;;8.02;5.18;;;;;;;17.24;100.00;101616.53;1018514;29;20053;-55
2023/09/08 00:31:55;;;;;;;7.32;6.72;;;;;;;17.32;100.00;101623.44;1020233;29;20495;-54
2023/09/08 00:32:44;;;;;;;6.15;5.13;;;;;;;17.31;100.00;101611.03;1023443;29;20047;-54
2023/09/08 00:34:05;;;;;;;10.43;6.10;;;;;;;17.35;100.00;101609.47;1023734;28;20044;-53
2023/09/08 00:34:51;;;;;;;6.43;5.43;;;;;;;17.47;100.00;101615.59;1024271;29;20074;-55
2023/09/08 00:35:44;;;;;;;9.35;5.82;;;;;;;17.72;100.00;101609.84;1017936;28;20057;-54
2023/09/08 00:36:32;;;;;;;5.80;5.30;;;;;;;17.72;100.00;101611.75;1030994;28;20042;-55
2023/09/08 00:37:23;;;;;;;6.38;5.07;;;;;;;17.55;100.00;101609.84;1024297;28;20137;-55
2023/09/08 00:38:26;;;;;;;5.90;4.68;;;;;;;17.28;100.00;101611.50;1024311;28;20525;-53
2023/09/08 00:39:09;;;;;;;5.57;5.10;;;;;;;17.23;100.00;101609.53;1026802;28;20043;-55
2023/09/08 00:39:48;;;;;;;6.15;5.45;;;;;;;17.25;100.00;101609.28;1023772;28;20054;-54
2023/09/08 00:40:44;;;;;;;6.18;4.85;;;;;;;17.19;100.00;101610.25;1024019;29;20051;-55
2023/09/08 00:41:34;;;;;;;4.85;4.35;;;;;;;17.28;100.00;101614.19;1026246;28;20066;-55
2023/09/08 00:42:15;;;;;;;5.63;5.13;;;;;;;17.04;100.00;101604.59;1029907;28;20063;-54
2023/09/08 00:43:14;;;;;;;6.65;4.72;;;;;;;16.91;100.00;101611.06;1032983;28;20138;-55
2023/09/08 00:44:19;;;;;;;5.45;4.93;;;;;;;16.92;100.00;101608.13;1028271;28;20094;-54
2023/09/08 00:45:06;;;;;;;6.00;5.32;;;;;;;16.89;100.00;101619.38;1024420;28;20051;-53
2023/09/08 00:45:48;;;;;;;5.97;5.38;;;;;;;16.82;100.00;101612.50;1029585;28;20086;-55
2023/09/08 00:46:37;;;;;;;6.07;5.35;;;;;;;16.88;100.00;101616.94;1020889;29;20074;-54
2023/09/08 00:47:22;;;;;;;7.07;4.70;;;;;;;16.82;100.00;101623.25;1017463;29;20412;-55
2023/09/08 00:48:29;;;;;;;5.18;4.78;;;;;;;16.59;100.00;101608.78;1020643;29;20044;-55
2023/09/08 00:49:17;;;;;;;5.68;5.18;;;;;;;16.68;100.00;101614.63;1020061;29;20047;-53
2023/09/08 00:50:12;;;;;;;5.40;4.90;;;;;;;16.55;100.00;101617.56;1024593;28;20058;-53
2023/09/08 00:51:05;;;;;;;6.03;5.43;;;;;;;16.61;100.00;101617.44;1028869;28;20046;-54
2023/09/08 00:51:59;;;;;;;5.93;5.25;;;;;;;16.42;100.00;101612.44;1024383;29;20146;-54
2023/09/08 00:52:45;;;;;;;5.07;4.65;;;;;;;16.50;100.00;101612.91;1026784;28;20055;-53
2023/09/08 00:53:31;;;;;;;8.00;6.43;;;;;;;16.56;100.00;101613.81;1028136;28;20059;-55
2023/09/08 00:54:48;;;;;;;7.47;5.50;;;;;;;16.52;100.00;101618.03;1022133;28;20055;-55
2023/09/08 00:55:47;;;;;;;8.77;6.10;;;;;;;16.37;100.00;101605.88;1023493;28;20549;-55
2023/09/08 00:57:02;;;;;;;10.82;6.60;;;;;;;16.29;100.00;101614.31;1021729;29;20052;-55
2023/09/08 00:57:58;;;;;;;8.88;5.97;;;;;;;16.50;100.00;101615.59;1024062;28;20126;-55
2023/09/08 00:59:02;;;;;;;12.35;5.85;;;;;;;16.37;100.00;101611.25;1020736;29;20044;-55
2023/09/08 00:59:50;;;;;;;11.50;6.05;;;;;;;16.38;100.00;101615.59;1023821;28;20093;-54
2023/09/08 01:00:44;;;;;;;10.82;5.55;;;;;;;16.20;100.00;101613.06;1021911;28;20174;-55
2023/09/08 01:01:50;;;;;;;7.18;5.38;;;;;;;16.36;100.00;101611.50;1018136;29;20055;-55
2023/09/08 01:02:34;;;;;;;9.90;6.15;;;;;;;16.16;100.00;101617.25;1022281;29;20516;-54
2023/09/08 01:03:48;;;;;;;9.90;5.20;;;;;;;16.26;100.00;101614.78;1020803;29;20055;-54
2023/09/08 01:04:40;;;;;;;9.02;5.80;;;;;;;16.37;100.00;101611.25;1016747;29;20051;-53
2023/09/08 01:05:33;;;;;;;6.32;5.65;;;;;;;16.51;100.00;101608.34;1020322;29;20055;-56
2023/09/08 01:06:29;;;;;;;8.65;5.18;;;;;;;16.43;100.00;101606.00;1016393;29;20076;-55
2023/09/08 01:07:09;;;;;;;6.17;5.57;;;;;;;16.38;100.00;101606.69;1014218;29;20089;-55
2023/09/08 01:07:57;;;;;;;6.68;5.20;;;;;;;16.46;100.00;101602.84;1017687;29;20304;-54
2023/09/08 01:10:04;;;;;;;5.90;5.38;;;;;;;16.85;100.00;101607.47;1026258;28;20047;-55
2023/09/08 01:10:46;;;;;;;6.63;5.20;;;;;;;17.02;100.00;101604.84;1021518;29;20407;-55
2023/09/08 01:11:27;;;;;;;6.00;5.40;;;;;;;16.95;100.00;101601.44;1020649;29;20040;-55
2023/09/08 01:12:24;;;;;;;;;;;;;;;;;;;;;
2023/09/08 01:13:11;;;;;;;6.25;5.68;;;;;;;17.09;100.00;101602.00;1022291;29;20119;-53
2023/09/08 01:13:48;;;;;;;7.70;6.20;;;;;;;17.06;100.00;101602.47;1028603;28;20047;-53
2023/09/08 01:14:27;;;;;;;;;;;;;;;16.91;100.00;101601.13;1022927;29;20058;-53
2023/09/08 01:16:06;;;;;;;;;;;;;;;;;;;;;
2023/09/08 01:17:01;;;;;;;5.90;5.20;;;;;;;16.61;100.00;101603.16;1028489;28;20079;-54
2023/09/08 01:18:12;;;;;;;7.50;5.70;;;;;;;16.46;100.00;101608.22;1015397;29;20044;-55
2023/09/08 01:19:13;;;;;;;6.68;5.13;;;;;;;16.55;100.00;101601.44;1025624;28;20048;-53
2023/09/08 01:20:43;;;;;;;5.50;5.03;;;;;;;16.64;100.00;101608.88;1029605;28;20559;-54
2023/09/08 01:21:56;;;;;;;12.32;6.03;;;;;;;16.61;100.00;101606.66;1014830;29;20098;-54
2023/09/08 01:23:24;;;;;;;6.13;5.45;;;;;;;16.42;100.00;101604.34;1031574;28;20103;-54
2023/09/08 01:24:57;;;;;;;9.35;6.05;;;;;;;16.43;100.00;101608.69;1031026;28;20049;-54
2023/09/08 01:26:06;;;;;;;6.90;5.53;;;;;;;16.63;100.00;101609.13;1030828;28;20054;-53
2023/09/08 01:26:54;;;;;;;5.90;5.30;;;;;;;16.52;100.00;101601.91;1017263;29;20055;-55
2023/09/08 01:28:02;;;;;;;7.43;5.25;;;;;;;16.45;100.00;101601.22;1021461;29;20047;-53
2023/09/08 01:28:54;;;;;;;10.18;6.50;;;;;;;16.37;100.00;101605.06;1019286;29;20099;-55
2023/09/08 01:29:39;;;;;;;7.03;6.38;;;;;;;16.50;100.00;101598.63;1019900;29;20112;-54
2023/09/08 01:30:52;;;;;;;8.82;6.22;;;;;;;16.42;100.00;101601.66;1019755;29;20048;-55
2023/09/08 01:31:35;;;;;;;6.63;5.38;;;;;;;16.36;100.00;101609.63;1031213;28;20046;-55
2023/09/08 01:32:16;;;;;;;6.55;5.95;;;;;;;16.31;100.00;101604.16;1029998;28;20540;-55
2023/09/08 01:32:58;;;;;;;8.45;5.75;;;;;;;16.30;100.00;101604.38;1031478;28;20047;-53
2023/09/08 01:33:42;;;;;;;8.75;6.57;;;;;;;16.35;100.00;101602.63;1023744;28;20051;-54
2023/09/08 01:34:33;;;;;;;6.50;5.90;;;;;;;16.53;100.00;101598.97;1009713;29;20193;-54
2023/09/08 01:35:23;;;;;;;7.95;6.13;;;;;;;16.49;100.00;101599.69;1017986;29;20048;-55
2023/09/08 01:36:11;;;;;;;7.35;6.07;;;;;;;16.43;100.00;101604.13;1023926;28;20040;-55
2023/09/08 01:37:09;;;;;;;7.63;5.57;;;;;;;16.42;100.00;101596.28;1021936;29;20339;-53
2023/09/08 01:37:54;;;;;;;7.75;5.75;;;;;;;16.45;100.00;101595.84;1018385;29;20278;-54
2023/09/08 01:38:45;;;;;;;7.45;6.47;;;;;;;16.30;100.00;101594.44;1023666;28;20083;-53
2023/09/08 01:39:46;;;;;;;11.00;5.95;;;;;;;16.58;100.00;101596.38;1026675;28;20047;-55
2023/09/08 01:40:44;;;;;;;6.63;5.75;;;;;;;16.50;100.00;101593.25;1019854;29;20047;-52
2023/09/08 01:41:30;;;;;;;5.95;5.45;;;;;;;16.44;100.00;101603.09;1026782;28;20046;-54
2023/09/08 01:42:18;;;;;;;6.72;6.13;;;;;;;16.47;100.00;101591.84;1026263;28;20042;-52
2023/09/08 01:43:09;;;;;;;8.05;7.07;;;;;;;16.47;100.00;101589.16;1023776;29;20044;-56
2023/09/08 01:43:55;;;;;;;6.53;5.60;;;;;;;16.26;100.00;101590.59;1023479;28;20058;-53
2023/09/08 01:44:50;;;;;;;6.70;6.00;;;;;;;16.25;100.00;101588.97;1020041;28;20036;-55
2023/09/08 01:46:02;;;;;;;7.35;6.53;;;;;;;16.35;100.00;101594.56;1015858;29;20036;-54
2023/09/08 01:46:58;;;;;;;6.70;6.07;;;;;;;16.50;100.00;101590.56;1020337;28;20076;-54
2023/09/08 01:47:51;;;;;;;7.60;5.60;;;;;;;16.65;100.00;101593.56;1026821;28;20055;-54
2023/09/08 01:48:38;;;;;;;8.18;6.00;;;;;;;16.59;100.00;101589.94;1030846;28;20123;-54
2023/09/08 01:49:36;;;;;;;6.78;6.07;;;;;;;16.77;100.00;101591.69;1028763;28;20043;-53
2023/09/08 01:50:32;;;;;;;7.35;6.35;;;;;;;16.75;100.00;101585.75;1029346;28;20038;-55
2023/09/08 01:51:18;;;;;;;9.25;6.15;;;;;;;16.78;100.00;101593.34;1027505;28;20170;-55
2023/09/08 01:51:56;;;;;;;9.43;6.90;;;;;;;16.98;100.00;101587.50;1025629;28;20066;-53
2023/09/08 01:52:33;;;;;;;8.10;7.30;;;;;;;16.99;100.00;101587.28;1025029;28;20044;-53
2023/09/08 01:53:18;;;;;;;9.63;7.65;;;;;;;17.03;100.00;101586.81;1022890;28;20067;-53
2023/09/08 01:54:13;;;;;;;8.13;7.25;;;;;;;16.97;100.00;101589.38;1015258;29;20049;-53
2023/09/08 01:55:15;;;;;;;7.30;6.60;;;;;;;16.92;100.00;101586.59;1024389;29;20065;-55
2023/09/08 01:56:10;;;;;;;7.55;6.82;;;;;;;17.07;100.00;101593.34;1023554;29;20039;-53
2023/09/08 01:57:21;;;;;;;7.10;6.40;;;;;;;16.83;100.00;101588.03;1015071;29;20093;-54
2023/09/08 01:58:27;;;;;;;7.80;7.00;;;;;;;16.67;100.00;101584.22;1022642;29;20059;-54
2023/09/08 01:59:30;;;;;;;6.53;6.03;;;;;;;16.63;100.00;101590.28;1010545;29;20150;-54
2023/09/08 02:00:37;;;;;;;7.45;6.78;;;;;;;16.31;100.00;101590.69;1025879;29;20054;-54
2023/09/08 02:01:54;;;;;;;6.57;5.97;;;;;;;16.27;100.00;101583.34;1022670;28;20035;-55
2023/09/08 02:02:35;;;;;;;11.07;6.72;;;;;;;16.15;100.00;101591.41;1026620;28;20189;-55
2023/09/08 02:03:18;;;;;;;;;;;;;;;16.22;100.00;101586.75;1021283;29;20044;-53
2023/09/08 02:04:03;;;;;;;6.93;5.88;;;;;;;16.36;100.00;101577.38;1013099;29;19923;-54
2023/09/08 02:04:59;;;;;;;7.15;6.22;;;;;;;16.29;100.00;101590.13;1009181;29;20049;-54
2023/09/08 02:06:12;;;;;;;7.82;6.85;;;;;;;16.56;100.00;101585.06;1011654;29;20049;-53
2023/09/08 02:07:01;;;;;;;14.35;7.43;;;;;;;16.39;100.00;101582.25;1021560;29;20067;-54
2023/09/08 02:07:55;;;;;;;7.55;6.82;;;;;;;16.21;100.00;101595.06;1025798;29;20055;-55
2023/09/08 02:08:49;;;;;;;6.68;6.07;;;;;;;16.16;100.00;101581.47;1025110;28;20051;-54
2023/09/08 02:09:35;;;;;;;7.43;6.68;;;;;;;16.30;100.00;101589.06;1028065;28;20055;-55
2023/09/08 02:10:28;;;;;;;8.85;6.13;;;;;;;16.16;100.00;101598.44;1015503;28;20040;-53
2023/09/08 02:11:17;;;;;;;7.53;6.35;;;;;;;16.19;100.00;101592.59;1028950;28;20042;-55
2023/09/08 02:12:07;;;;;;;7.43;6.72;;;;;;;15.98;100.00;101587.81;1029154;28;20531;-53
2023/09/08 02:12:52;;;;;;;9.70;7.38;;;;;;;15.95;100.00;101596.34;1028720;28;20054;-54
2023/09/08 02:13:37;;;;;;;11.00;7.47;;;;;;;15.94;100.00;101595.53;1023828;29;20181;-53
2023/09/08 02:14:46;;;;;;;7.78;6.70;;;;;;;15.98;100.00;101601.25;1025023;28;20040;-52
2023/09/08 02:16:00;;;;;;;;;;;;;;;;;;;;;
2023/09/08 02:16:50;;;;;;;10.15;6.07;;;;;;;16.03;100.00;101599.47;1024584;29;20468;-54
2023/09/08 02:17:56;;;;;;;10.90;7.05;;;;;;;15.89;100.00;101597.28;1025228;29;20145;-54
2023/09/08 02:19:10;;;;;;;7.00;6.30;;;;;;;16.15;100.00;101595.97;1023844;29;20046;-54
2023/09/08 02:20:10;;;;;;;11.73;5.95;;;;;;;16.07;100.00;101594.47;1024640;29;20048;-54
2023/09/08 02:21:16;;;;;;;8.23;6.13;;;;;;;16.01;100.00;101593.53;1017375;29;20043;-52
2023/09/08 02:21:57;;;;;;;6.80;6.20;;;;;;;15.88;100.00;101595.59;1014366;29;20522;-52
2023/09/08 02:23:02;;;;;;;8.13;6.95;;;;;;;15.69;100.00;101603.78;1023570;29;20047;-55
2023/09/08 02:24:00;;;;;;;6.93;6.22;;;;;;;15.88;100.00;101595.59;1024971;29;20047;-54
2023/09/08 02:24:44;;;;;;;10.45;7.78;;;;;;;15.72;100.00;101592.56;1020804;29;20054;-54
2023/09/08 02:25:35;;;;;;;7.57;6.80;;;;;;;15.84;100.00;101592.56;1020645;29;20039;-53
2023/09/08 02:26:21;;;;;;;9.38;8.50;;;;;;;15.88;100.00;101600.97;1011739;29;20036;-54
2023/09/08 02:27:07;;;;;;;7.97;7.28;;;;;;;15.90;100.00;101588.16;1018158;29;20052;-54
2023/09/08 02:27:56;;;;;;;7.82;6.60;;;;;;;15.83;100.00;101592.81;1014003;29;20058;-54
2023/09/08 02:29:22;;;;;;;7.32;6.50;;;;;;;15.69;100.00;101593.03;1017544;29;20063;-54
2023/09/08 02:30:21;;;;;;;9.50;7.95;;;;;;;15.72;100.00;101597.94;1028464;28;20128;-54
2023/09/08 02:31:19;;;;;;;10.35;7.47;;;;;;;15.70;100.00;101592.00;1028170;28;20107;-53
2023/09/08 02:32:10;;;;;;;7.53;6.78;;;;;;;15.77;100.00;101590.00;1022760;29;20055;-53
2023/09/08 02:33:05;;;;;;;8.80;6.88;;;;;;;15.77;100.00;101592.69;1018266;29;20175;-52
2023/09/08 02:34:06;;;;;;;9.30;8.30;;;;;;;15.51;100.00;101587.72;1023995;29;20043;-52
2023/09/08 02:34:44;;;;;;;9.43;7.53;;;;;;;15.56;100.00;101587.03;1028259;28;20591;-54
2023/09/08 02:35:32;;;;;;;8.45;7.05;;;;;;;15.53;100.00;101592.84;1029631;28;20094;-52
2023/09/08 02:36:14;;;;;;;9.93;7.47;;;;;;;15.65;100.00;101586.50;1023992;28;20043;-52
2023/09/08 02:37:00;;;;;;;6.85;6.20;;;;;;;15.59;100.00;101582.03;1024427;29;20062;-54
2023/09/08 02:38:11;;;;;;;10.57;6.82;;;;;;;15.54;100.00;101587.25;1023848;29;20051;-54
2023/09/08 02:39:11;;;;;;;7.78;7.05;;;;;;;15.36;100.00;101592.72;1020653;29;20051;-51
2023/09/08 02:40:00;;;;;;;8.68;7.43;;;;;;;15.50;100.00;101585.25;1024117;29;20136;-54
2023/09/08 02:41:05;;;;;;;7.65;6.95;;;;;;;15.49;100.00;101592.50;1021412;28;20126;-52
2023/09/08 02:41:47;;;;;;;8.32;7.57;;;;;;;15.45;100.00;101585.97;1016186;29;20048;-50
2023/09/08 02:42:22;;;;;;;10.48;7.07;;;;;;;15.44;100.00;101589.69;1017662;29;20048;-53
2023/09/08 02:42:53;;;;;;;9.18;7.93;;;;;;;15.22;100.00;101586.72;1019207;29;20044;-53
2023/09/08 02:43:25;;;;;;;6.85;6.13;;;;;;;15.34;100.00;101586.72;1024372;28;20110;-52
2023/09/08 02:43:57;;;;;;;7.93;7.15;;;;;;;15.33;100.00;101593.16;1029879;28;20501;-54
2023/09/08 02:44:29;;;;;;;7.93;7.13;;;;;;;15.36;100.00;101592.72;1027630;28;20043;-53
2023/09/08 02:45:03;;;;;;;8.43;7.63;;;;;;;15.37;100.00;101586.28;1027097;28;20143;-53
2023/09/08 02:45:35;;;;;;;10.60;8.57;;;;;;;15.39;100.00;101581.50;1026828;28;20047;-52
2023/09/08 02:46:09;;;;;;;7.95;7.18;;;;;;;15.22;100.00;101583.19;1026208;28;20418;-53
2023/09/08 02:46:41;;;;;;;6.82;6.32;;;;;;;15.22;100.00;101583.19;1027134;28;20473;-54
2023/09/08 02:47:13;;;;;;;13.07;7.32;;;;;;;15.30;100.00;101582.88;1027514;28;20039;-55
2023/09/08 02:47:47;;;;;;;8.73;6.90;;;;;;;15.56;100.00;101581.66;1027988;28;20038;-54
2023/09/08 02:48:19;;;;;;;8.35;7.55;;;;;;;15.60;100.00;101589.03;1025620;28;20047;-55
2023/09/08 02:48:52;;;;;;;11.95;7.28;;;;;;;15.38;100.00;101585.25;1028385;28;20457;-54
2023/09/08 02:49:24;;;;;;;14.20;7.00;;;;;;;15.48;100.00;101579.31;1027231;28;20148;-55
2023/09/08 02:49:57;;;;;;;7.72;6.80;;;;;;;15.51;100.00;101578.84;1027410;28;20061;-55
2023/09/08 02:50:28;;;;;;;9.75;6.85;;;;;;;15.52;100.00;101580.47;1031370;28;20038;-55
2023/09/08 02:51:00;;;;;;;8.43;6.65;;;;;;;15.36;100.00;101590.03;1024895;28;20578;-54
2023/09/08 02:51:34;;;;;;;10.10;7.22;;;;;;;15.45;100.00;101585.97;1026274;28;20571;-53
2023/09/08 02:52:07;;;;;;;8.65;7.63;;;;;;;15.38;100.00;101585.25;1023646;29;20514;-54
2023/09/08 02:52:41;;;;;;;7.97;6.70;;;;;;;15.42;100.00;101594.47;1023093;29;20209;-52
2023/09/08 02:53:13;;;;;;;7.47;6.85;;;;;;;15.38;100.00;101590.63;1021379;28;20472;-53
2023/09/08 02:53:45;;;;;;;7.45;6.70;;;;;;;15.56;100.00;101581.66;1024450;28;20122;-52
2023/09/08 02:54:16;;;;;;;9.85;7.68;;;;;;;15.51;100.00;101590.41;1025415;28;20063;-53
2023/09/08 02:54:48;;;;;;;7.85;6.72;;;;;;;15.35;100.00;101593.75;1023344;29;20051;-51
2023/09/08 02:55:20;;;;;;;7.32;6.63;;;;;;;15.35;100.00;101597.25;1019050;29;20060;-53
2023/09/08 02:55:52;;;;;;;10.70;7.18;;;;;;;15.58;100.00;101585.78;1012343;29;20060;-53
2023/09/08 02:56:24;;;;;;;9.65;7.55;;;;;;;15.61;100.00;101596.06;1016792;29;20179;-52
2023/09/08 02:56:56;;;;;;;10.30;7.03;;;;;;;15.23;100.00;101592.88;1015569;29;20051;-51
2023/09/08 02:57:28;;;;;;;9.00;6.43;;;;;;;15.33;100.00;101593.16;1016071;29;20111;-52
2023/09/08 02:57:59;;;;;;;8.02;7.22;;;;;;;15.24;100.00;101594.53;1022072;29;20047;-54
2023/09/08 02:58:34;;;;;;;8.98;7.38;;;;;;;15.21;100.00;101592.31;1024228;28;20051;-54
2023/09/08 02:59:07;;;;;;;7.78;7.07;;;;;;;15.29;100.00;101598.16;1023166;28;20051;-54
2023/09/08 02:59:38;;;;;;;7.55;6.95;;;;;;;15.30;100.00;101598.97;1027006;28;20391;-55
2023/09/08 03:00:12;;;;;;;7.85;7.15;;;;;;;15.28;100.00;101591.16;1027185;28;20070;-55
2023/09/08 03:00:44;;;;;;;9.07;7.35;;;;;;;15.36;100.00;101593.53;1023459;28;20054;-53
2023/09/08 03:01:20;;;;;;;8.15;7.35;;;;;;;15.41;100.00;101590.16;1025927;28;20047;-56
2023/09/08 03:01:52;;;;;;;10.40;7.57;;;;;;;15.26;100.00;101592.44;1028004;28;20121;-54
2023/09/08 03:02:27;;;;;;;9.90;7.40;;;;;;;15.29;100.00;101594.66;1024621;28;20063;-53
2023/09/08 03:02:59;;;;;;;7.82;7.05;;;;;;;15.33;100.00;101598.50;1020765;29;20036;-52
2023/09/08 03:03:33;;;;;;;8.75;7.28;;;;;;;15.21;100.00;101589.63;1020212;29;20141;-52
2023/09/08 03:04:05;;;;;;;8.93;7.38;;;;;;;15.33;100.00;101598.50;1019730;29;20042;-53
2023/09/08 03:04:37;;;;;;;8.27;7.45;;;;;;;15.29;100.00;101590.09;1019297;29;20052;-54
2023/09/08 03:05:09;;;;;;;8.35;7.53;;;;;;;15.15;100.00;101602.91;1019509;29;20043;-54
2023/09/08 03:05:41;;;;;;;7.97;7.13;;;;;;;15.11;100.00;101601.72;1019486;29;20047;-55
2023/09/08 03:06:14;;;;;;;8.70;7.80;;;;;;;15.06;100.00;101593.53;1024068;28;20151;-53
2023/09/08 03:06:46;;;;;;;11.98;6.95;;;;;;;15.13;100.00;101594.28;1022394;29;20055;-52
2023/09/08 03:07:18;;;;;;;12.32;8.57;;;;;;;15.14;100.00;101603.13;1023298;28;20130;-53
2023/09/08 03:07:50;;;;;;;9.25;6.90;;;;;;;15.29;100.00;101598.16;1027431;28;20517;-54
2023/09/08 03:08:23;;;;;;;8.07;6.43;;;;;;;15.30;100.00;101593.59;1026631;28;20054;-55
2023/09/08 03:08:55;;;;;;;9.32;8.50;;;;;;;15.33;100.00;101599.34;1031123;28;20038;-55
2023/09/08 03:09:27;;;;;;;7.68;6.97;;;;;;;15.51;100.00;101598.47;1031183;28;20042;-55
2023/09/08 03:09:59;;;;;;;11.18;8.07;;;;;;;15.42;100.00;101592.59;1026691;28;20546;-54
2023/09/08 03:10:34;;;;;;;8.40;7.60;;;;;;;15.41;100.00;101595.53;1027762;28;20129;-53
2023/09/08 03:11:05;;;;;;;7.68;6.97;;;;;;;15.44;100.00;101592.38;1026780;28;20516;-52
2023/09/08 03:11:37;;;;;;;8.75;6.90;;;;;;;15.54;100.00;101594.50;1026633;28;20050;-52
2023/09/08 03:12:10;;;;;;;8.05;7.28;;;;;;;15.49;100.00;101589.00;1023095;29;20059;-52
2023/09/08 03:12:43;;;;;;;10.15;7.03;;;;;;;15.29;100.00;101591.97;1019617;29;20526;-52
2023/09/08 03:13:14;;;;;;;7.68;6.90;;;;;;;15.41;100.00;101590.97;1022884;29;20244;-52
2023/09/08 03:13:47;;;;;;;10.13;7.72;;;;;;;15.29;100.00;101591.97;1019941;29;20123;-52
2023/09/08 03:14:22;;;;;;;8.70;6.78;;;;;;;15.32;100.00;101591.50;1024137;28;20043;-53
2023/09/08 03:14:54;;;;;;;7.13;6.38;;;;;;;15.58;100.00;101588.44;1022815;29;20205;-53
2023/09/08 03:15:29;;;;;;;7.75;7.05;;;;;;;15.53;100.00;101582.13;1020078;29;20046;-53
2023/09/08 03:16:05;;;;;;;9.10;6.57;;;;;;;15.40;100.00;101588.53;1023188;29;20410;-52
2023/09/08 03:16:37;;;;;;;8.75;7.82;;;;;;;15.41;100.00;101590.16;1024569;28;20097;-53
2023/09/08 03:17:08;;;;;;;7.07;6.45;;;;;;;15.32;100.00;101589.66;1024858;28;20055;-53
2023/09/08 03:17:40;;;;;;;9.15;7.50;;;;;;;15.14;100.00;101584.34;1027201;28;20090;-53
2023/09/08 03:18:12;;;;;;;7.97;7.20;;;;;;;15.12;100.00;101591.81;1027112;28;20046;-55
2023/09/08 03:18:47;;;;;;;7.40;6.70;;;;;;;15.18;100.00;101590.91;1027327;28;20126;-55
2023/09/08 03:19:20;;;;;;;7.32;6.38;;;;;;;15.23;100.00;101592.88;1031333;28;20138;-52
2023/09/08 03:19:52;;;;;;;9.55;8.48;;;;;;;15.13;100.00;101596.13;1031504;28;20054;-54
2023/09/08 03:20:28;;;;;;;9.70;6.50;;;;;;;15.49;100.00;101597.06;1027312;28;20045;-53
2023/09/08 03:21:08;;;;;;;8.93;7.28;;;;;;;15.38;100.00;101593.31;1027113;28;20466;-53
2023/09/08 03:21:41;;;;;;;7.90;7.10;;;;;;;15.34;100.00;101595.63;1023269;29;20059;-52
2023/09/08 03:22:14;;;;;;;6.95;6.25;;;;;;;15.18;100.00;101600.81;1025181;28;20130;-53
2023/09/08 03:22:46;;;;;;;8.40;7.50;;;;;;;15.21;100.00;101589.63;1027809;28;20058;-54
2023/09/08 03:23:18;;;;;;;11.88;7.63;;;;;;;15.20;100.00;101594.16;1027948;28;20412;-55
2023/09/08 03:23:50;;;;;;;15.70;9.52;;;;;;;15.12;100.00;101595.31;1027919;28;20058;-53
2023/09/08 03:24:21;;;;;;;8.27;7.40;;;;;;;15.25;100.00;101590.78;1022730;29;20055;-52
2023/09/08 03:24:53;;;;;;;8.43;7.50;;;;;;;15.05;100.00;101591.88;1023467;29;20520;-52
2023/09/08 03:25:26;;;;;;;8.95;8.05;;;;;;;15.02;100.00;101592.34;1023621;28;20036;-55
2023/09/08 03:25:57;;;;;;;8.45;7.38;;;;;;;15.06;100.00;101588.16;1027462;28;20118;-52
2023/09/08 03:26:29;;;;;;;8.38;7.57;;;;;;;15.19;100.00;101591.72;1032235;28;20041;-53
2023/09/08 03:27:03;;;;;;;8.65;7.72;;;;;;;15.13;100.00;101588.91;1025549;28;20078;-54
2023/09/08 03:27:42;;;;;;;8.02;7.13;;;;;;;15.10;100.00;101594.72;1027124;28;20525;-54
2023/09/08 03:28:14;;;;;;;9.07;8.18;;;;;;;14.98;100.00;101595.72;1027084;28;20513;-54
2023/09/08 03:28:46;;;;;;;11.85;8.18;;;;;;;15.02;100.00;101592.34;1021957;29;20047;-54
2023/09/08 03:29:25;;;;;;;8.25;7.40;;;;;;;15.07;100.00;101594.38;1023660;29;20074;-52
2023/09/08 03:29:57;;;;;;;9.65;7.85;;;;;;;15.03;100.00;101595.84;1023233;29;20048;-52
2023/09/08 03:30:30;;;;;;;8.02;7.32;;;;;;;15.06;100.00;101593.53;1022300;28;20126;-52
2023/09/08 03:31:03;;;;;;;8.63;7.72;;;;;;;15.06;100.00;101593.53;1022219;29;20509;-52
2023/09/08 03:31:37;;;;;;;13.35;9.40;;;;;;;14.86;100.00;101593.00;1019336;29;20055;-54
2023/09/08 03:32:09;;;;;;;10.40;7.82;;;;;;;14.93;100.00;101587.53;1019164;29;20518;-54
2023/09/08 03:32:41;;;;;;;9.95;7.60;;;;;;;14.92;100.00;101591.25;1019903;29;20074;-55
2023/09/08 03:33:13;;;;;;;7.53;6.75;;;;;;;14.93;100.00;101588.34;1019116;29;20043;-55
2023/09/08 03:33:45;;;;;;;8.90;8.05;;;;;;;15.17;100.00;101593.81;1023918;29;20047;-54
2023/09/08 03:34:20;;;;;;;11.65;8.10;;;;;;;15.30;100.00;101588.25;1019562;29;20051;-54
2023/09/08 03:34:52;;;;;;;6.75;6.15;;;;;;;15.33;100.00;101583.22;1023042;29;20067;-55
2023/09/08 03:35:24;;;;;;;12.15;7.20;;;;;;;15.35;100.00;101583.84;1021810;29;20110;-55
2023/09/08 03:35:55;;;;;;;7.82;7.03;;;;;;;15.46;100.00;101590.28;1015821;29;20052;-54
2023/09/08 03:36:27;;;;;;;8.43;7.63;;;;;;;15.32;100.00;101581.59;1022954;29;20055;-55
2023/09/08 03:36:59;;;;;;;8.27;7.50;;;;;;;15.36;100.00;101581.97;1022401;29;20168;-54
2023/09/08 03:37:30;;;;;;;9.07;6.93;;;;;;;15.51;100.00;101578.84;1022702;28;20067;-55